Time;durP1;ratioP1;P1;durP2;ratioP2;P2;SDS_P1;SDS_P2;PMS_P1;PMS_P2;Temp;Humidity;BMP_temperature;BMP_pressure;BME280_temperature;BME280_humidity;BME280_pressure;Samples;Min_cycle;Max_cycle;Signal;HPM_P1;HPM_P2
2022/04/05 00:00:58;;;;;;;5.73;5.17;;;5.40;99.90;;;;;;5260880;28;20173;-48
2022/04/05 00:03:30;;;;;;;4.80;4.27;;;5.30;99.90;;;;;;5263793;28;20206;-49
2022/04/05 00:06:00;;;;;;;3.67;3.47;;;5.40;99.90;;;;;;5242307;28;20201;-48
2022/04/05 00:08:31;;;;;;;5.63;4.00;;;5.30;99.90;;;;;;5248771;28;20664;-48
2022/04/05 00:11:02;;;;;;;3.80;3.60;;;5.20;99.90;;;;;;5261236;28;20174;-48
2022/04/05 00:13:32;;;;;;;9.27;3.70;;;5.10;99.90;;;;;;5254974;28;20660;-48
2022/04/05 00:16:04;;;;;;;4.07;3.40;;;5.10;99.90;;;;;;5243825;28;20289;-48
2022/04/05 00:18:35;;;;;;;7.33;3.60;;;5.10;99.90;;;;;;5267283;28;20733;-49
2022/04/05 00:21:06;;;;;;;13.23;3.70;;;4.90;99.90;;;;;;5265798;28;20521;-49
2022/04/05 00:23:36;;;;;;;4.60;2.47;;;4.90;99.90;;;;;;5261718;28;20281;-50
2022/04/05 00:26:07;;;;;;;8.60;3.03;;;4.90;99.90;;;;;;5253936;28;20251;-49
2022/04/05 00:28:38;;;;;;;7.33;2.60;;;4.80;99.90;;;;;;5269244;28;20181;-49
2022/04/05 00:31:09;;;;;;;8.33;2.93;;;4.80;99.90;;;;;;5256591;28;20178;-47
2022/04/05 00:33:40;;;;;;;6.70;2.50;;;4.80;99.90;;;;;;5248112;28;20255;-50
2022/04/05 00:36:10;;;;;;;14.63;3.13;;;4.80;99.90;;;;;;5249563;28;20492;-51
2022/04/05 00:38:41;;;;;;;6.70;1.93;;;4.80;99.90;;;;;;5262556;28;20182;-51
2022/04/05 00:41:11;;;;;;;15.87;2.30;;;4.80;99.90;;;;;;5264475;28;20266;-51
2022/04/05 00:43:42;;;;;;;6.33;1.90;;;4.80;99.90;;;;;;5264587;28;20209;-48
2022/04/05 00:46:13;;;;;;;12.20;2.50;;;4.80;99.90;;;;;;5266629;28;20206;-49
2022/04/05 00:48:51;;;;;;;13.53;2.57;;;4.80;99.90;;;;;;5265450;28;20259;-49
2022/04/05 00:51:23;;;;;;;4.97;1.50;;;4.80;99.90;;;;;;5260489;28;20170;-50
2022/04/05 00:54:00;;;;;;;5.07;2.23;;;4.80;99.90;;;;;;5264848;28;20790;-48
2022/04/05 00:56:34;;;;;;;8.17;2.43;;;4.80;99.90;;;;;;5262444;28;20790;-50
2022/04/05 00:59:07;;;;;;;11.37;2.30;;;4.80;99.90;;;;;;5264333;28;20527;-48
2022/04/05 01:01:38;;;;;;;5.80;1.70;;;4.80;99.90;;;;;;5258552;28;20462;-52
2022/04/05 01:04:10;;;;;;;10.50;2.60;;;4.80;99.90;;;;;;5263818;28;20827;-51
2022/04/05 01:06:44;;;;;;;4.73;2.10;;;4.80;99.90;;;;;;5263611;28;20956;-50
2022/04/05 01:09:15;;;;;;;6.17;2.83;;;4.80;99.90;;;;;;5248678;28;20934;-48
2022/04/05 01:11:45;;;;;;;7.23;2.87;;;4.80;99.90;;;;;;5264638;28;20436;-49
2022/04/05 01:14:16;;;;;;;8.77;2.90;;;4.80;99.90;;;;;;5253380;28;20189;-49
2022/04/05 01:16:47;;;;;;;9.07;2.17;;;4.90;99.90;;;;;;5246453;28;20265;-49
2022/04/05 01:19:18;;;;;;;6.97;2.40;;;4.90;99.90;;;;;;5230787;28;20236;-48
2022/04/05 01:21:48;;;;;;;6.73;2.97;;;4.90;99.90;;;;;;5266591;28;20524;-52
2022/04/05 01:24:19;;;;;;;7.10;2.30;;;4.90;99.90;;;;;;5246836;28;20244;-49
2022/04/05 01:26:51;;;;;;;14.87;3.57;;;4.80;99.90;;;;;;5257856;28;20513;-47
2022/04/05 01:29:24;;;;;;;5.20;2.67;;;4.80;99.90;;;;;;5246980;28;20272;-49
2022/04/05 01:32:03;;;;;;;7.73;2.50;;;4.70;99.90;;;;;;5265421;28;20426;-47
2022/04/05 01:34:36;;;;;;;6.13;2.27;;;4.70;99.90;;;;;;5271769;28;20483;-48
2022/04/05 01:37:10;;;;;;;6.90;2.43;;;4.70;99.90;;;;;;5246423;28;20438;-48
2022/04/05 01:39:41;;;;;;;15.47;3.90;;;4.70;99.90;;;;;;5251597;28;20436;-50
2022/04/05 01:42:14;;;;;;;5.40;3.10;;;4.70;99.90;;;;;;5266596;28;20437;-48
2022/04/05 01:44:45;;;;;;;13.47;2.67;;;4.70;99.90;;;;;;5251814;28;20451;-48
2022/04/05 01:47:17;;;;;;;5.27;2.20;;;4.70;99.90;;;;;;5248588;28;20834;-49
2022/04/05 01:49:51;;;;;;;13.83;3.20;;;4.80;99.90;;;;;;5249796;28;20181;-49
2022/04/05 01:52:21;;;;;;;11.93;2.30;;;4.70;99.90;;;;;;5263515;28;20456;-49
2022/04/05 01:54:52;;;;;;;15.27;2.23;;;4.70;99.90;;;;;;5229129;28;20488;-49
2022/04/05 01:57:22;;;;;;;8.70;2.03;;;4.70;99.90;;;;;;5265994;28;20261;-48
2022/04/05 01:59:53;;;;;;;7.20;2.23;;;4.60;99.90;;;;;;5247509;28;20225;-48
2022/04/05 02:02:24;;;;;;;9.10;2.10;;;4.60;99.90;;;;;;5245123;28;20188;-49
2022/04/05 02:04:55;;;;;;;15.40;2.50;;;4.50;99.90;;;;;;5254005;28;20225;-50
2022/04/05 02:07:25;;;;;;;7.67;2.30;;;4.50;99.90;;;;;;5265191;28;20264;-49
2022/04/05 02:09:56;;;;;;;12.20;2.33;;;4.50;99.90;;;;;;5249631;28;20174;-48
2022/04/05 02:12:26;;;;;;;11.20;1.83;;;4.60;99.90;;;;;;5261694;28;20170;-49
2022/04/05 02:14:57;;;;;;;11.93;2.40;;;4.60;99.90;;;;;;5264597;28;20216;-47
2022/04/05 02:17:28;;;;;;;3.40;1.37;;;4.60;99.90;;;;;;5267903;28;20264;-50
2022/04/05 02:20:00;;;;;;;10.60;2.27;;;4.60;99.90;;;;;;5263386;28;20209;-48
2022/04/05 02:22:31;;;;;;;11.13;2.00;;;4.60;99.90;;;;;;5262658;28;20227;-50
2022/04/05 02:25:03;;;;;;;5.00;2.07;;;4.60;99.90;;;;;;5264418;28;20443;-50
2022/04/05 02:27:34;;;;;;;3.80;1.20;;;4.70;99.90;;;;;;5247595;28;20173;-52
2022/04/05 02:30:05;;;;;;;7.87;1.73;;;4.70;99.90;;;;;;5245179;28;20775;-48
2022/04/05 02:32:36;;;;;;;9.00;2.03;;;4.70;99.90;;;;;;5267709;28;20658;-49
2022/04/05 02:35:08;;;;;;;6.93;2.57;;;4.70;99.90;;;;;;5248848;28;20461;-48
2022/04/05 02:37:39;;;;;;;15.70;2.33;;;4.70;99.90;;;;;;5233609;28;20797;-49
2022/04/05 02:40:09;;;;;;;8.17;2.00;;;4.70;99.90;;;;;;5246914;28;20435;-50
2022/04/05 02:42:40;;;;;;;12.50;2.20;;;4.70;99.90;;;;;;5258839;28;20202;-48
2022/04/05 02:45:11;;;;;;;5.50;1.93;;;4.70;99.90;;;;;;5259983;28;20501;-48
2022/04/05 02:47:42;;;;;;;3.73;1.67;;;4.70;99.90;;;;;;5264901;28;20645;-49
2022/04/05 02:50:17;;;;;;;21.17;3.07;;;4.70;99.90;;;;;;5260386;28;20470;-49
2022/04/05 02:52:49;;;;;;;7.33;2.00;;;4.80;99.90;;;;;;5257481;28;20180;-48
2022/04/05 02:55:19;;;;;;;8.03;2.43;;;4.80;99.90;;;;;;5247415;28;20456;-49
2022/04/05 02:57:50;;;;;;;3.20;1.77;;;4.90;99.90;;;;;;5264467;28;20478;-49
2022/04/05 03:00:21;;;;;;;5.10;1.80;;;4.90;99.90;;;;;;5259310;28;20197;-51
2022/04/05 03:02:51;;;;;;;5.87;2.30;;;4.90;99.90;;;;;;5262571;28;20232;-49
2022/04/05 03:05:23;;;;;;;2.77;1.37;;;5.00;99.90;;;;;;5256902;28;20320;-49
2022/04/05 03:07:53;;;;;;;6.80;2.10;;;5.00;99.90;;;;;;5262357;28;20177;-50
2022/04/05 03:10:25;;;;;;;15.50;2.10;;;5.00;99.90;;;;;;5242874;28;21044;-50
2022/04/05 03:12:55;;;;;;;9.10;1.93;;;5.10;99.90;;;;;;5246375;28;20178;-48
2022/04/05 03:15:27;;;;;;;10.23;1.97;;;5.10;99.90;;;;;;5241911;22;20491;-50
2022/04/05 03:17:58;;;;;;;11.53;2.30;;;5.10;99.90;;;;;;5223918;28;20696;-49
2022/04/05 03:20:28;;;;;;;3.33;1.70;;;5.10;99.90;;;;;;5223791;28;20438;-49
2022/04/05 03:23:00;;;;;;;2.63;1.77;;;5.20;99.90;;;;;;5219218;28;21007;-51
2022/04/05 03:25:31;;;;;;;16.40;2.20;;;5.20;99.90;;;;;;5213792;28;20520;-49
2022/04/05 03:28:04;;;;;;;7.53;2.00;;;5.20;99.90;;;;;;5217778;28;20521;-51
2022/04/05 03:30:34;;;;;;;11.33;2.27;;;5.20;99.90;;;;;;5212016;28;20252;-50
2022/04/05 03:33:05;;;;;;;11.80;2.30;;;5.20;99.90;;;;;;5216970;28;20502;-49
2022/04/05 03:35:35;;;;;;;11.53;2.60;;;5.20;99.90;;;;;;5216062;28;20210;-51
2022/04/05 03:38:06;;;;;;;6.70;1.63;;;5.20;99.90;;;;;;5208612;28;20733;-50
2022/04/05 03:40:36;;;;;;;8.23;2.27;;;5.20;99.90;;;;;;5213159;28;20187;-50
2022/04/05 03:43:12;;;;;;;12.20;3.13;;;5.20;99.90;;;;;;5210121;28;20200;-51
2022/04/05 03:45:42;;;;;;;7.30;1.67;;;5.20;99.90;;;;;;5208712;28;20188;-51
2022/04/05 03:48:13;;;;;;;15.57;2.60;;;5.20;99.90;;;;;;5217105;28;20424;-50
2022/04/05 03:50:43;;;;;;;9.87;2.50;;;5.20;99.90;;;;;;5222298;28;20660;-50
2022/04/05 03:53:14;;;;;;;5.70;2.10;;;5.20;99.90;;;;;;5222042;28;20206;-50
2022/04/05 03:55:45;;;;;;;4.03;1.73;;;5.20;99.90;;;;;;5225165;28;20226;-50
2022/04/05 03:58:16;;;;;;;3.07;1.87;;;5.20;99.90;;;;;;5219171;28;20438;-50
2022/04/05 04:00:46;;;;;;;8.53;2.53;;;5.20;99.90;;;;;;5222091;28;20217;-51
2022/04/05 04:03:17;;;;;;;4.27;1.30;;;5.20;99.90;;;;;;5217312;28;20205;-50
2022/04/05 04:05:47;;;;;;;7.23;2.27;;;5.20;99.90;;;;;;5225720;28;20195;-50
2022/04/05 04:08:18;;;;;;;8.70;2.07;;;5.20;99.90;;;;;;5220280;28;20218;-50
2022/04/05 04:10:49;;;;;;;11.67;2.30;;;5.30;99.90;;;;;;5222908;28;20186;-52
2022/04/05 04:13:19;;;;;;;18.33;2.70;;;5.30;99.90;;;;;;5214214;28;20188;-50
2022/04/05 04:15:50;;;;;;;9.83;2.07;;;5.40;99.90;;;;;;5223706;28;20221;-51
2022/04/05 04:18:21;;;;;;;6.80;2.00;;;5.30;99.90;;;;;;5215548;28;20454;-50
2022/04/05 04:20:52;;;;;;;4.47;1.90;;;5.30;99.90;;;;;;5212185;28;20196;-51
2022/04/05 04:23:22;;;;;;;3.60;1.50;;;5.30;99.90;;;;;;5210397;28;20200;-50
2022/04/05 04:25:53;;;;;;;6.20;2.50;;;5.40;99.90;;;;;;5219405;28;20196;-51
2022/04/05 04:28:23;;;;;;;11.50;2.57;;;5.40;99.90;;;;;;5216765;28;20197;-51
2022/04/05 04:30:54;;;;;;;6.63;2.27;;;5.30;99.90;;;;;;5226799;28;20663;-51
2022/04/05 04:33:24;;;;;;;16.10;2.80;;;5.30;99.90;;;;;;5223300;28;20806;-51
2022/04/05 04:35:55;;;;;;;11.73;2.70;;;5.30;99.90;;;;;;5224337;28;20227;-51
2022/04/05 04:38:25;;;;;;;19.53;2.40;;;5.30;99.90;;;;;;5217115;28;20197;-50
2022/04/05 04:40:56;;;;;;;6.93;2.00;;;5.30;99.90;;;;;;5221254;28;20543;-52
2022/04/05 04:43:27;;;;;;;6.33;2.27;;;5.30;99.90;;;;;;5214897;28;20208;-52
2022/04/05 04:45:58;;;;;;;7.20;2.50;;;5.20;99.90;;;;;;5219248;28;20219;-51
2022/04/05 04:48:28;;;;;;;3.97;2.03;;;5.30;99.90;;;;;;5216386;28;20175;-51
2022/04/05 04:50:59;;;;;;;13.57;2.30;;;5.30;99.90;;;;;;5226979;28;20851;-50
2022/04/05 04:53:29;;;;;;;5.57;2.43;;;5.30;99.90;;;;;;5224945;28;20180;-50
2022/04/05 04:56:00;;;;;;;8.93;1.70;;;5.40;99.90;;;;;;5223570;28;20267;-51
2022/04/05 04:58:30;;;;;;;3.70;1.80;;;5.40;99.90;;;;;;5223818;28;20262;-52
2022/04/05 05:01:01;;;;;;;10.10;2.70;;;5.30;99.90;;;;;;5213315;28;20195;-51
2022/04/05 05:03:31;;;;;;;8.13;2.10;;;5.40;99.90;;;;;;5202594;28;20545;-51
2022/04/05 05:06:04;;;;;;;7.00;1.90;;;5.40;99.90;;;;;;5225791;28;20193;-52
2022/04/05 05:08:35;;;;;;;14.00;1.73;;;5.50;99.90;;;;;;5213225;28;20506;-52
2022/04/05 05:11:05;;;;;;;9.53;1.73;;;5.40;99.90;;;;;;5224238;28;20431;-51
2022/04/05 05:13:36;;;;;;;6.90;2.77;;;5.50;99.90;;;;;;5225413;28;20520;-52
2022/04/05 05:16:07;;;;;;;15.47;3.20;;;5.40;99.90;;;;;;5227566;28;20225;-50
2022/04/05 05:18:38;;;;;;;9.73;2.90;;;5.50;99.90;;;;;;5222805;28;20451;-51
2022/04/05 05:21:08;;;;;;;7.30;2.47;;;5.60;99.90;;;;;;5217399;28;20602;-53
2022/04/05 05:23:39;;;;;;;8.33;2.07;;;5.60;99.90;;;;;;5217865;28;20227;-51
2022/04/05 05:26:09;;;;;;;10.77;2.40;;;5.70;99.90;;;;;;5222061;28;20270;-52
2022/04/05 05:28:40;;;;;;;4.53;2.17;;;5.70;99.90;;;;;;5213552;28;20187;-52
2022/04/05 05:31:10;;;;;;;6.83;2.20;;;5.50;99.90;;;;;;5219522;28;20291;-53
2022/04/05 05:33:41;;;;;;;15.57;2.37;;;5.60;99.90;;;;;;5227535;28;20602;-51
2022/04/05 05:36:11;;;;;;;11.00;2.90;;;5.60;99.90;;;;;;5221896;28;20604;-53
2022/04/05 05:38:42;;;;;;;15.90;2.77;;;5.60;99.90;;;;;;5221770;28;20514;-52
2022/04/05 05:41:12;;;;;;;14.23;2.20;;;5.70;99.90;;;;;;5222323;28;20187;-53
2022/04/05 05:43:45;;;;;;;7.93;2.13;;;5.60;99.90;;;;;;5224028;28;20664;-53
2022/04/05 05:46:16;;;;;;;15.70;2.67;;;5.70;99.90;;;;;;5220832;28;20214;-52
2022/04/05 05:48:47;;;;;;;5.70;2.27;;;5.70;99.90;;;;;;5214585;28;20438;-53
2022/04/05 05:51:17;;;;;;;17.83;2.63;;;5.80;99.90;;;;;;5220330;28;20550;-52
2022/04/05 05:53:48;;;;;;;10.03;2.50;;;5.80;99.90;;;;;;5214228;28;20196;-53
2022/04/05 05:56:19;;;;;;;11.00;2.43;;;5.80;99.90;;;;;;5224942;28;20219;-51
2022/04/05 05:58:51;;;;;;;9.30;2.43;;;5.90;99.90;;;;;;5219230;28;20207;-50
2022/04/05 06:01:23;;;;;;;8.20;2.70;;;6.00;99.90;;;;;;5203851;28;20297;-51
2022/04/05 06:03:53;;;;;;;8.20;2.43;;;6.00;99.90;;;;;;5224212;28;20844;-52
2022/04/05 06:06:24;;;;;;;12.40;3.20;;;6.10;99.90;;;;;;5226574;28;20449;-52
2022/04/05 06:08:58;;;;;;;7.57;2.23;;;6.10;99.90;;;;;;5214756;28;20264;-51
2022/04/05 06:11:28;;;;;;;9.77;2.50;;;6.20;99.90;;;;;;5221229;28;20645;-52
2022/04/05 06:13:59;;;;;;;8.83;2.40;;;6.40;99.90;;;;;;5222782;28;20436;-52
2022/04/05 06:16:29;;;;;;;13.37;2.53;;;6.30;99.90;;;;;;5204777;28;20294;-52
2022/04/05 06:19:00;;;;;;;10.00;2.30;;;6.30;99.90;;;;;;5208012;28;20524;-53
2022/04/05 06:21:30;;;;;;;5.70;1.53;;;6.20;99.90;;;;;;5224232;28;20180;-51
2022/04/05 06:24:01;;;;;;;8.03;2.20;;;6.20;99.90;;;;;;5220741;28;20259;-51
2022/04/05 06:26:31;;;;;;;4.20;1.50;;;6.30;99.90;;;;;;5214763;28;20201;-52
2022/04/05 06:29:02;;;;;;;3.60;1.70;;;6.40;99.90;;;;;;5213158;28;20170;-52
2022/04/05 06:31:32;;;;;;;4.73;1.53;;;6.50;99.90;;;;;;5215622;28;20182;-51
2022/04/05 06:34:03;;;;;;;7.70;1.60;;;6.70;99.90;;;;;;5223712;28;20272;-52
2022/04/05 06:36:33;;;;;;;5.60;1.80;;;7.00;99.90;;;;;;5218849;28;20529;-52
2022/04/05 06:39:04;;;;;;;6.90;2.00;;;7.20;99.90;;;;;;5223526;28;20190;-51
2022/04/05 06:41:35;;;;;;;8.13;2.00;;;7.10;99.90;;;;;;5223347;28;20189;-52
2022/04/05 06:44:06;;;;;;;14.70;2.33;;;7.00;99.90;;;;;;5217251;28;20257;-52
2022/04/05 06:46:36;;;;;;;6.50;2.20;;;6.90;99.90;;;;;;5200242;28;20458;-52
2022/04/05 06:49:07;;;;;;;8.53;2.10;;;6.90;99.90;;;;;;5223777;28;20199;-52
2022/04/05 06:51:37;;;;;;;10.27;1.80;;;6.70;99.90;;;;;;5220980;28;20241;-51
2022/04/05 06:54:09;;;;;;;6.63;2.10;;;6.70;99.90;;;;;;5225050;28;20228;-51
2022/04/05 06:56:39;;;;;;;4.03;2.40;;;6.80;99.90;;;;;;5223787;28;20666;-51
2022/04/05 06:59:10;;;;;;;10.43;2.70;;;6.80;99.90;;;;;;5213621;28;20440;-51
2022/04/05 07:01:40;;;;;;;4.43;1.80;;;6.80;99.90;;;;;;5221548;28;20187;-53
2022/04/05 07:04:11;;;;;;;3.87;1.57;;;7.00;99.90;;;;;;5219542;28;20225;-52
2022/04/05 07:06:41;;;;;;;10.67;1.60;;;7.30;99.90;;;;;;5228050;28;20276;-51
2022/04/05 07:09:12;;;;;;;1.70;1.10;;;8.40;99.90;;;;;;5224908;28;20179;-52
2022/04/05 07:11:43;;;;;;;13.27;1.67;;;9.50;99.90;;;;;;5222276;28;20273;-53
2022/04/05 07:14:13;;;;;;;3.33;1.40;;;10.70;99.90;;;;;;5220741;28;20518;-53
2022/04/05 07:16:44;;;;;;;13.00;2.07;;;12.20;89.70;;;;;;5218958;28;20272;-51
2022/04/05 07:19:15;;;;;;;15.53;1.50;;;12.60;68.50;;;;;;5218917;28;20253;-52
2022/04/05 07:21:45;;;;;;;5.50;2.10;;;12.30;67.80;;;;;;5223795;28;20191;-53
2022/04/05 07:24:16;;;;;;;2.40;1.10;;;11.50;71.60;;;;;;5213885;28;20227;-52
2022/04/05 07:26:46;;;;;;;15.33;2.03;;;10.60;79.60;;;;;;5219036;28;20595;-51
2022/04/05 07:29:17;;;;;;;10.80;1.50;;;10.10;83.20;;;;;;5219411;28;20183;-52
2022/04/05 07:31:47;;;;;;;4.97;2.10;;;9.80;89.40;;;;;;5219584;28;20185;-52
2022/04/05 07:34:18;;;;;;;4.67;1.90;;;9.30;93.60;;;;;;5222858;28;20191;-52
2022/04/05 07:36:48;;;;;;;4.70;2.00;;;8.80;98.10;;;;;;5223586;28;20233;-52
2022/04/05 07:39:21;;;;;;;7.90;1.60;;;8.50;99.90;;;;;;5215028;28;20210;-51
2022/04/05 07:41:52;;;;;;;6.17;1.47;;;9.00;99.90;;;;;;5219990;28;20615;-53
2022/04/05 07:44:23;;;;;;;3.87;1.30;;;8.90;99.10;;;;;;5182191;28;20511;-52
2022/04/05 07:46:53;;;;;;;3.40;1.30;;;9.10;97.30;;;;;;5224673;28;20433;-52
2022/04/05 07:49:24;;;;;;;8.63;1.50;;;8.90;97.60;;;;;;5222081;28;20180;-52
2022/04/05 07:51:54;;;;;;;6.50;2.63;;;8.60;99.90;;;;;;5226748;28;20181;-52
2022/04/05 07:54:25;;;;;;;5.93;2.03;;;8.80;98.60;;;;;;5224496;28;20255;-52
2022/04/05 07:56:55;;;;;;;8.20;2.13;;;9.40;94.90;;;;;;5225286;28;20666;-52
2022/04/05 07:59:26;;;;;;;2.10;1.00;;;9.90;92.40;;;;;;5220711;28;20183;-52
2022/04/05 08:01:57;;;;;;;10.47;2.50;;;11.70;71.90;;;;;;5224415;28;20634;-51
2022/04/05 08:04:27;;;;;;;2.60;1.20;;;12.30;59.80;;;;;;5222545;28;20619;-52
2022/04/05 08:06:58;;;;;;;3.63;1.90;;;12.60;59.00;;;;;;5224702;28;20281;-51
2022/04/05 08:09:29;;;;;;;7.40;1.70;;;13.70;54.00;;;;;;5223296;28;20256;-51
2022/04/05 08:11:59;;;;;;;3.87;0.90;;;13.60;51.30;;;;;;5218060;28;20215;-52
2022/04/05 08:14:31;;;;;;;5.30;1.53;;;12.80;52.50;;;;;;5217773;28;20188;-52
2022/04/05 08:17:02;;;;;;;3.90;2.30;;;12.30;54.10;;;;;;5217082;28;20184;-52
2022/04/05 08:19:32;;;;;;;3.30;1.70;;;12.50;53.30;;;;;;5219230;28;20442;-51
2022/04/05 08:22:03;;;;;;;8.03;1.53;;;12.80;52.80;;;;;;5212083;28;20179;-51
2022/04/05 08:24:34;;;;;;;1.87;1.60;;;13.50;51.50;;;;;;5209139;28;20323;-52
2022/04/05 08:27:05;;;;;;;5.23;1.50;;;12.90;50.80;;;;;;5219636;28;20203;-52
2022/04/05 08:29:40;;;;;;;3.03;2.80;;;12.30;53.00;;;;;;5213041;28;20484;-52
2022/04/05 08:32:10;;;;;;;1.80;1.03;;;11.30;51.90;;;;;;5221630;28;20166;-52
2022/04/05 08:34:42;;;;;;;7.50;1.57;;;10.60;52.00;;;;;;5219412;28;20508;-54
2022/04/05 08:37:13;;;;;;;12.63;2.93;;;10.60;52.20;;;;;;5220061;28;20275;-52
2022/04/05 08:39:43;;;;;;;9.13;1.63;;;10.80;52.90;;;;;;5224033;28;20547;-52
2022/04/05 08:42:14;;;;;;;4.37;0.90;;;11.00;53.80;;;;;;5226709;28;20437;-51
2022/04/05 08:44:45;;;;;;;1.80;1.13;;;11.00;53.80;;;;;;5209084;28;20211;-52
2022/04/05 08:47:21;;;;;;;1.97;1.27;;;10.70;54.50;;;;;;5220770;28;20206;-51
2022/04/05 08:49:52;;;;;;;2.93;1.37;;;10.30;55.20;;;;;;5227715;28;20174;-52
2022/04/05 08:52:23;;;;;;;3.50;1.20;;;10.00;54.10;;;;;;5227290;28;20515;-51
2022/04/05 08:54:55;;;;;;;3.53;1.23;;;10.00;54.80;;;;;;5225347;28;20209;-51
2022/04/05 08:57:25;;;;;;;7.50;1.60;;;10.10;55.10;;;;;;5227070;28;20448;-52
2022/04/05 08:59:56;;;;;;;8.03;1.90;;;9.60;56.10;;;;;;5216086;28;20930;-51
2022/04/05 09:02:27;;;;;;;9.30;1.53;;;9.70;57.40;;;;;;5222460;28;20190;-52
2022/04/05 09:04:58;;;;;;;4.57;1.00;;;9.40;56.40;;;;;;5227414;28;20734;-53
2022/04/05 09:07:31;;;;;;;2.70;1.27;;;9.30;54.70;;;;;;5223816;28;20500;-52
2022/04/05 09:10:14;;;;;;;1.37;1.27;;;9.40;55.10;;;;;;5223123;28;20190;-52
2022/04/05 09:12:46;;;;;;;6.73;1.33;;;9.60;55.40;;;;;;5229541;28;20509;-52
2022/04/05 09:15:16;;;;;;;4.73;1.70;;;9.70;55.60;;;;;;5235426;23;20509;-49
2022/04/05 09:17:48;;;;;;;5.60;1.60;;;9.70;56.10;;;;;;5208664;28;20448;-48
2022/04/05 09:20:20;;;;;;;2.70;0.97;;;9.60;53.90;;;;;;5228241;28;20187;-48
2022/04/05 09:22:54;;;;;;;6.73;2.03;;;9.50;53.60;;;;;;5221368;28;20480;-49
2022/04/05 09:25:25;;;;;;;6.50;1.20;;;9.30;54.30;;;;;;5213442;28;20535;-50
2022/04/05 09:27:58;;;;;;;4.70;1.33;;;9.30;54.70;;;;;;5246838;28;20455;-48
2022/04/05 09:30:31;;;;;;;1.87;1.03;;;9.30;54.80;;;;;;5242844;28;20433;-48
2022/04/05 09:33:04;;;;;;;7.37;1.63;;;9.60;55.90;;;;;;5231091;28;20441;-50
2022/04/05 09:35:43;;;;;;;8.23;3.20;;;10.00;54.80;;;;;;5241387;28;20460;-50
2022/04/05 09:38:17;;;;;;;7.83;1.77;;;10.10;54.60;;;;;;5245737;28;20443;-48
2022/04/05 09:40:52;;;;;;;2.90;1.80;;;10.40;54.80;;;;;;5228953;28;20432;-50
2022/04/05 09:43:23;;;;;;;7.40;1.90;;;10.40;54.30;;;;;;5239495;28;20509;-47
2022/04/05 09:45:56;;;;;;;2.17;1.20;;;10.50;54.20;;;;;;5244362;28;20943;-48
2022/04/05 09:48:36;;;;;;;4.40;1.03;;;10.40;54.00;;;;;;5223097;28;20175;-47
2022/04/05 09:51:12;;;;;;;7.03;1.73;;;9.90;54.30;;;;;;5243443;28;20790;-49
2022/04/05 09:53:46;;;;;;;4.43;1.03;;;9.80;55.40;;;;;;5244436;28;20428;-47
2022/04/05 09:56:18;;;;;;;5.50;1.17;;;10.00;54.60;;;;;;5227556;28;20460;-49
2022/04/05 09:58:57;;;;;;;2.20;1.13;;;9.80;54.80;;;;;;5229069;28;20523;-49
2022/04/05 10:01:27;;;;;;;6.10;1.87;;;9.70;55.50;;;;;;5244264;28;20433;-48
2022/04/05 10:04:03;;;;;;;6.83;1.53;;;9.70;56.20;;;;;;5223922;28;20467;-48
2022/04/05 10:06:38;;;;;;;5.30;1.27;;;9.60;56.60;;;;;;5237573;28;20202;-47
2022/04/05 10:09:10;;;;;;;20.17;8.93;;;9.90;58.00;;;;;;5247178;28;20435;-48
2022/04/05 10:11:42;;;;;;;12.80;5.57;;;10.30;55.30;;;;;;5246337;28;20450;-47
2022/04/05 10:14:20;;;;;;;6.30;2.43;;;10.70;55.30;;;;;;5245791;28;20497;-48
2022/04/05 10:16:52;;;;;;;7.27;2.20;;;10.60;54.20;;;;;;5248076;28;20533;-46
2022/04/05 10:19:24;;;;;;;3.30;1.50;;;10.60;54.50;;;;;;5241252;28;20446;-48
2022/04/05 10:21:57;;;;;;;9.80;1.53;;;10.60;54.50;;;;;;5241306;28;20432;-47
2022/04/05 10:24:30;;;;;;;4.70;1.60;;;10.70;54.20;;;;;;5233339;28;20468;-47
2022/04/05 10:27:02;;;;;;;6.03;2.53;;;10.40;54.60;;;;;;5229802;28;20528;-48
2022/04/05 10:29:33;;;;;;;4.20;2.17;;;10.50;55.40;;;;;;5242688;28;20444;-47
2022/04/05 10:32:27;;;;;;;14.70;5.33;;;10.70;54.80;;;;;;5242431;28;20444;-48
2022/04/05 10:35:07;;;;;;;6.00;2.47;;;10.90;54.70;;;;;;5242823;28;20495;-49
2022/04/05 10:37:39;;;;;;;6.17;1.93;;;10.80;54.40;;;;;;5225448;28;20436;-48
2022/04/05 10:40:15;;;;;;;7.07;1.93;;;10.40;55.00;;;;;;5245312;28;20432;-48
2022/04/05 10:42:49;;;;;;;2.97;1.53;;;10.30;54.30;;;;;;5228890;28;20432;-46
2022/04/05 10:45:26;;;;;;;1.90;1.00;;;9.90;56.50;;;;;;5238149;28;20452;-49
2022/04/05 10:48:18;;;;;;;3.23;1.70;;;9.60;58.00;;;;;;5238367;28;20428;-48
2022/04/05 10:51:00;;;;;;;8.47;1.37;;;9.40;59.50;;;;;;5225904;28;20816;-48
2022/04/05 10:53:32;;;;;;;8.60;4.30;;;9.40;61.80;;;;;;5241002;28;20439;-49
2022/04/05 10:56:03;;;;;;;3.73;2.23;;;9.80;59.90;;;;;;5226001;28;20456;-47
2022/04/05 10:58:35;;;;;;;4.70;2.70;;;10.10;57.10;;;;;;5223567;28;20962;-49
2022/04/05 11:01:18;;;;;;;9.40;1.97;;;10.40;56.50;;;;;;5241716;28;20184;-48
2022/04/05 11:04:29;;;;;;;6.30;2.20;;;10.90;54.70;;;;;;5242798;28;20514;-48
2022/04/05 11:07:02;;;;;;;3.90;1.60;;;11.20;54.40;;;;;;5220638;28;20455;-48
2022/04/05 11:09:35;;;;;;;2.03;1.60;;;11.30;53.10;;;;;;5244131;28;20499;-49
2022/04/05 11:12:19;;;;;;;9.30;4.10;;;11.20;52.10;;;;;;5226685;28;20497;-48
2022/04/05 11:14:55;;;;;;;13.50;2.57;;;10.80;52.30;;;;;;5226829;28;20460;-48
2022/04/05 11:17:27;;;;;;;4.93;1.27;;;10.60;53.20;;;;;;5227797;28;20497;-51
2022/04/05 11:20:00;;;;;;;2.67;1.57;;;10.60;53.70;;;;;;5241651;28;20796;-49
2022/04/05 11:22:34;;;;;;;4.80;1.67;;;10.40;54.70;;;;;;5247073;28;20555;-49
2022/04/05 11:25:25;;;;;;;7.90;1.23;;;10.30;54.50;;;;;;5244554;28;20451;-48
2022/04/05 11:28:08;;;;;;;7.80;1.20;;;10.40;55.10;;;;;;5240350;28;20422;-47
2022/04/05 11:30:46;;;;;;;5.00;1.13;;;10.30;53.70;;;;;;5235017;28;20453;-48
2022/04/05 11:33:26;;;;;;;5.67;1.43;;;10.10;54.70;;;;;;5225987;28;20450;-48
2022/04/05 11:36:07;;;;;;;4.33;1.67;;;10.00;55.40;;;;;;5227337;28;20478;-48
2022/04/05 11:38:53;;;;;;;3.00;1.20;;;10.00;55.70;;;;;;5239778;28;20429;-48
2022/04/05 11:41:31;;;;;;;5.97;2.30;;;10.00;55.90;;;;;;5227064;28;20940;-46
2022/04/05 11:44:06;;;;;;;6.40;1.83;;;9.90;56.00;;;;;;5240103;28;20941;-47
2022/04/05 11:46:37;;;;;;;1.63;1.20;;;9.80;56.00;;;;;;5218157;28;20467;-49
2022/04/05 11:49:11;;;;;;;7.93;1.97;;;9.60;56.50;;;;;;5244348;28;20448;-48
2022/04/05 11:51:49;;;;;;;5.70;1.87;;;9.60;56.50;;;;;;5246804;28;20428;-48
2022/04/05 11:54:27;;;;;;;1.93;1.37;;;9.80;57.00;;;;;;5243951;28;20440;-47
2022/04/05 11:57:04;;;;;;;2.93;1.23;;;10.10;56.00;;;;;;5228284;28;20460;-47
2022/04/05 11:59:35;;;;;;;1.40;0.90;;;10.20;55.30;;;;;;5229277;28;20531;-49
2022/04/05 12:02:06;;;;;;;4.03;1.13;;;10.10;55.20;;;;;;5242490;28;20988;-48
2022/04/05 12:04:36;;;;;;;2.40;1.43;;;10.30;55.30;;;;;;5220705;28;20543;-48
2022/04/05 12:07:08;;;;;;;9.50;1.20;;;10.40;54.80;;;;;;5242776;28;20185;-48
2022/04/05 12:09:40;;;;;;;4.67;1.27;;;10.50;54.80;;;;;;5240947;28;20166;-50
2022/04/05 12:12:10;;;;;;;5.40;0.97;;;10.40;54.70;;;;;;5235588;28;20463;-50
2022/04/05 12:14:41;;;;;;;2.30;1.90;;;10.30;54.90;;;;;;5229158;28;20455;-48
2022/04/05 12:17:12;;;;;;;10.60;1.93;;;10.30;55.50;;;;;;5223952;28;20297;-48
2022/04/05 12:19:43;;;;;;;3.73;1.43;;;10.20;55.90;;;;;;5231226;28;20178;-49
2022/04/05 12:22:16;;;;;;;5.30;1.03;;;10.20;56.40;;;;;;5242134;28;20454;-48
2022/04/05 12:24:53;;;;;;;4.67;1.80;;;10.20;56.20;;;;;;5244915;28;20206;-47
2022/04/05 12:27:27;;;;;;;4.63;1.80;;;10.00;56.50;;;;;;5231291;28;20828;-48
2022/04/05 12:30:01;;;;;;;2.67;2.00;;;10.10;56.80;;;;;;5226091;28;20710;-48
2022/04/05 12:32:36;;;;;;;4.13;1.50;;;10.20;56.80;;;;;;5228296;28;20444;-48
2022/04/05 12:35:08;;;;;;;6.40;1.60;;;10.20;55.90;;;;;;5243203;28;20447;-47
2022/04/05 12:37:38;;;;;;;12.10;8.10;;;9.90;56.80;;;;;;5249702;28;20527;-50
2022/04/05 12:40:23;;;;;;;8.83;2.40;;;10.00;56.80;;;;;;5232450;28;20518;-48
2022/04/05 12:42:53;;;;;;;4.67;1.20;;;10.10;56.10;;;;;;5209308;28;20195;-48
2022/04/05 12:45:29;;;;;;;3.47;2.37;;;10.40;55.50;;;;;;5213225;28;20927;-49
2022/04/05 12:48:14;;;;;;;11.17;2.50;;;10.80;54.70;;;;;;5211104;28;20186;-47
2022/04/05 12:50:49;;;;;;;5.10;1.40;;;10.90;53.60;;;;;;5249182;28;20448;-47
2022/04/05 12:53:27;;;;;;;2.20;1.13;;;10.70;53.60;;;;;;5244330;28;20500;-47
2022/04/05 12:56:01;;;;;;;4.90;1.80;;;10.70;54.30;;;;;;5246215;28;20463;-48
2022/04/05 12:58:41;;;;;;;1.87;1.03;;;10.70;53.90;;;;;;5238382;28;20446;-46
2022/04/05 13:01:16;;;;;;;5.47;1.30;;;10.70;54.20;;;;;;5229600;28;20459;-48
2022/04/05 13:03:47;;;;;;;1.67;1.03;;;10.50;54.50;;;;;;5241264;28;20466;-48
2022/04/05 13:06:28;;;;;;;4.03;1.53;;;10.60;55.50;;;;;;5242180;28;20456;-49
2022/04/05 13:09:09;;;;;;;5.63;1.70;;;10.80;56.00;;;;;;5226525;28;20187;-47
2022/04/05 13:11:40;;;;;;;5.03;2.00;;;11.10;55.90;;;;;;5226735;28;20429;-48
2022/04/05 13:14:15;;;;;;;3.37;1.70;;;11.30;55.00;;;;;;5214206;28;20516;-49
2022/04/05 13:16:48;;;;;;;4.30;2.00;;;11.50;54.90;;;;;;5241810;28;20478;-48